Time;durP1;ratioP1;P1;durP2;ratioP2;P2;SDS_P1;SDS_P2;PMS_P1;PMS_P2;Temp;Humidity;BMP_temperature;BMP_pressure;BME280_temperature;BME280_humidity;BME280_pressure;Samples;Min_cycle;Max_cycle;Signal;HPM_P1;HPM_P2
2023/12/07 00:00:04;;;;;;;9.20;3.70;;;5.10;99.90;;;;;;5096410;28;20036;-65
2023/12/07 00:02:31;;;;;;;9.95;3.95;;;5.20;99.90;;;;;;5096119;28;20126;-64
2023/12/07 00:04:58;;;;;;;11.10;4.05;;;5.30;99.90;;;;;;5095331;28;20119;-64
2023/12/07 00:07:25;;;;;;;6.40;3.80;;;5.30;99.90;;;;;;5095905;28;20039;-65
2023/12/07 00:09:52;;;;;;;13.57;3.83;;;5.30;99.90;;;;;;5095812;28;20044;-69
2023/12/07 00:12:18;;;;;;;12.75;3.47;;;5.40;99.90;;;;;;5095747;28;20040;-69
2023/12/07 00:14:46;;;;;;;11.20;3.60;;;5.40;99.90;;;;;;5096441;28;20040;-69
2023/12/07 00:17:13;;;;;;;8.55;3.58;;;5.50;99.90;;;;;;5095947;28;20036;-69
2023/12/07 00:19:40;;;;;;;7.95;3.80;;;5.50;99.90;;;;;;5095628;28;20141;-69
2023/12/07 00:22:07;;;;;;;13.80;3.90;;;5.60;99.90;;;;;;5095187;28;20047;-69
2023/12/07 00:24:34;;;;;;;8.20;3.60;;;5.60;99.90;;;;;;5095140;28;20051;-69
2023/12/07 00:27:01;;;;;;;12.38;3.78;;;5.60;99.90;;;;;;5095837;28;20097;-69
2023/12/07 00:29:28;;;;;;;8.95;4.15;;;5.60;99.90;;;;;;5094267;28;20036;-69
2023/12/07 00:31:54;;;;;;;6.43;3.47;;;5.60;99.90;;;;;;5096031;28;20404;-69
2023/12/07 00:34:21;;;;;;;9.60;3.65;;;5.70;99.90;;;;;;5095980;28;20085;-69
2023/12/07 00:36:48;;;;;;;9.63;3.60;;;5.70;99.90;;;;;;5095903;28;20032;-69
2023/12/07 00:39:16;;;;;;;10.65;3.83;;;5.70;99.90;;;;;;5095652;28;20044;-69
2023/12/07 00:41:43;;;;;;;8.15;3.47;;;5.70;99.90;;;;;;5095401;28;20053;-69
2023/12/07 00:44:10;;;;;;;12.70;3.60;;;5.70;99.90;;;;;;5095411;28;20044;-69
2023/12/07 00:46:37;;;;;;;5.55;3.38;;;5.70;99.90;;;;;;5095200;28;20405;-69
2023/12/07 00:49:03;;;;;;;13.88;3.90;;;5.70;99.90;;;;;;5095464;28;20040;-69
2023/12/07 00:51:30;;;;;;;13.00;3.90;;;5.80;99.90;;;;;;5095539;28;20048;-69
2023/12/07 00:53:58;;;;;;;6.68;3.28;;;5.80;99.90;;;;;;5095058;28;20032;-69
2023/12/07 00:56:25;;;;;;;9.20;3.70;;;5.80;99.90;;;;;;5095559;28;20032;-69
2023/12/07 00:58:52;;;;;;;11.00;3.60;;;5.80;99.90;;;;;;5095053;28;20136;-69
2023/12/07 01:01:18;;;;;;;8.98;3.80;;;5.90;99.90;;;;;;5093495;28;20093;-69
2023/12/07 01:03:45;;;;;;;10.40;3.70;;;5.90;99.90;;;;;;5094185;28;20044;-69
2023/12/07 01:06:12;;;;;;;8.43;3.80;;;5.90;99.90;;;;;;5094569;28;20044;-69
2023/12/07 01:08:39;;;;;;;12.98;3.95;;;5.90;99.90;;;;;;5094736;28;20047;-69
2023/12/07 01:11:06;;;;;;;8.30;3.72;;;5.90;99.90;;;;;;5095081;28;20044;-69
2023/12/07 01:13:33;;;;;;;12.20;4.43;;;6.00;99.90;;;;;;5095146;28;20511;-69
2023/12/07 01:16:00;;;;;;;9.00;3.88;;;6.00;99.90;;;;;;5095155;28;20040;-69
2023/12/07 01:18:26;;;;;;;10.05;4.10;;;6.00;99.90;;;;;;5094576;28;20040;-69
2023/12/07 01:20:53;;;;;;;9.38;3.92;;;6.00;99.90;;;;;;5093422;28;20036;-69
2023/12/07 01:23:20;;;;;;;11.90;3.72;;;6.00;99.90;;;;;;5094909;28;20072;-69
2023/12/07 01:25:47;;;;;;;8.27;3.53;;;6.00;99.90;;;;;;5094912;28;20048;-69
2023/12/07 01:28:14;;;;;;;12.65;4.57;;;6.00;99.90;;;;;;5094619;28;20444;-69
2023/12/07 01:30:41;;;;;;;8.57;3.65;;;6.00;99.90;;;;;;5094355;28;20087;-69
2023/12/07 01:33:07;;;;;;;10.85;3.90;;;6.00;99.90;;;;;;5093924;28;20461;-67
2023/12/07 01:35:34;;;;;;;9.50;4.13;;;6.00;99.90;;;;;;5094417;28;20504;-67
2023/12/07 01:38:01;;;;;;;9.10;3.83;;;6.00;99.90;;;;;;5094240;28;20062;-69
2023/12/07 01:40:28;;;;;;;11.52;4.07;;;6.00;99.90;;;;;;5094277;28;20036;-69
2023/12/07 01:42:55;;;;;;;9.32;3.95;;;6.00;99.90;;;;;;5094043;28;20390;-67
2023/12/07 01:45:21;;;;;;;9.45;3.78;;;6.00;99.90;;;;;;5094679;28;20075;-69
2023/12/07 01:47:48;;;;;;;11.93;4.20;;;6.00;99.90;;;;;;5082033;28;20041;-70
2023/12/07 01:50:15;;;;;;;9.50;3.83;;;6.00;99.90;;;;;;5073897;28;20470;-67
2023/12/07 01:52:42;;;;;;;7.70;3.78;;;6.10;99.90;;;;;;5073936;28;20377;-69
2023/12/07 01:55:09;;;;;;;12.38;3.95;;;6.10;99.90;;;;;;5074299;28;20486;-69
2023/12/07 01:57:36;;;;;;;7.85;4.15;;;6.10;99.90;;;;;;5073726;28;20041;-69
2023/12/07 02:00:03;;;;;;;7.53;3.65;;;6.10;99.90;;;;;;5073718;28;20086;-69
2023/12/07 02:02:30;;;;;;;8.00;3.70;;;6.10;99.90;;;;;;5073737;28;20402;-69
2023/12/07 02:04:59;;;;;;;10.27;3.85;;;6.10;99.90;;;;;;5072779;28;20386;-69
2023/12/07 02:07:26;;;;;;;12.02;4.30;;;6.10;99.90;;;;;;5073607;28;20066;-69
2023/12/07 02:09:53;;;;;;;9.90;4.30;;;6.10;99.90;;;;;;5073426;28;20071;-69
2023/12/07 02:12:20;;;;;;;12.85;4.45;;;6.10;99.90;;;;;;5073562;28;20044;-69
2023/12/07 02:14:47;;;;;;;11.65;4.13;;;6.10;99.90;;;;;;5074200;28;20123;-69
2023/12/07 02:17:15;;;;;;;15.15;4.22;;;6.10;99.90;;;;;;5073824;28;20070;-69
2023/12/07 02:19:42;;;;;;;8.63;4.22;;;6.10;99.90;;;;;;5073697;28;20111;-69
2023/12/07 02:22:09;;;;;;;9.82;4.15;;;6.10;99.90;;;;;;5072405;28;20363;-70
2023/12/07 02:24:35;;;;;;;7.10;3.85;;;6.10;99.90;;;;;;5073073;28;20066;-69
2023/12/07 02:27:02;;;;;;;11.70;3.83;;;6.10;99.90;;;;;;5073891;28;20068;-69
2023/12/07 02:29:29;;;;;;;11.00;3.85;;;6.10;99.90;;;;;;5073739;28;20382;-70
2023/12/07 02:31:56;;;;;;;10.45;3.85;;;6.10;99.90;;;;;;5073610;28;20465;-69
2023/12/07 02:34:22;;;;;;;13.55;3.83;;;6.20;99.90;;;;;;5073380;28;20055;-69
2023/12/07 02:36:49;;;;;;;11.55;4.25;;;6.20;99.90;;;;;;5073849;28;20039;-69
2023/12/07 02:39:16;;;;;;;11.13;4.40;;;6.20;99.90;;;;;;5073199;28;20102;-67
2023/12/07 02:41:43;;;;;;;9.35;4.30;;;6.20;99.90;;;;;;5073716;28;20140;-69
2023/12/07 02:44:10;;;;;;;10.18;3.80;;;6.20;99.90;;;;;;5073783;28;20393;-69
2023/12/07 02:46:36;;;;;;;11.20;4.13;;;6.20;99.90;;;;;;5073416;28;20072;-69
2023/12/07 02:49:03;;;;;;;11.32;3.63;;;6.20;99.90;;;;;;5073168;28;20093;-69
2023/12/07 02:51:30;;;;;;;10.30;3.67;;;6.20;99.90;;;;;;5073748;28;20127;-69
2023/12/07 02:53:57;;;;;;;15.13;3.88;;;6.20;99.90;;;;;;5072901;28;20091;-69
2023/12/07 02:56:24;;;;;;;10.52;3.60;;;6.20;99.90;;;;;;5073058;28;20094;-69
2023/12/07 02:58:50;;;;;;;8.75;3.75;;;6.20;99.90;;;;;;5073496;28;20036;-69
2023/12/07 03:01:17;;;;;;;11.18;4.65;;;6.20;99.90;;;;;;5072948;28;20064;-66
2023/12/07 03:03:44;;;;;;;13.50;4.00;;;6.20;99.90;;;;;;5073188;28;20094;-65
2023/12/07 03:06:11;;;;;;;16.45;3.85;;;6.20;99.90;;;;;;5073083;28;20044;-65
2023/12/07 03:08:37;;;;;;;10.57;4.07;;;6.20;99.90;;;;;;5073074;28;20043;-66
2023/12/07 03:11:04;;;;;;;11.30;3.90;;;6.30;99.90;;;;;;5073090;28;20409;-66
2023/12/07 03:13:31;;;;;;;9.65;3.53;;;6.30;99.90;;;;;;5073101;28;20041;-63
2023/12/07 03:15:58;;;;;;;9.60;3.85;;;6.30;99.90;;;;;;5072798;28;20102;-66
2023/12/07 03:18:25;;;;;;;9.90;3.75;;;6.30;99.90;;;;;;5071854;28;20128;-65
2023/12/07 03:20:52;;;;;;;11.48;3.92;;;6.30;99.90;;;;;;5073462;28;20117;-65
2023/12/07 03:23:18;;;;;;;12.68;4.38;;;6.30;99.90;;;;;;5073332;28;20074;-66
2023/12/07 03:25:45;;;;;;;11.50;4.15;;;6.30;99.90;;;;;;5071792;28;20053;-65
2023/12/07 03:28:12;;;;;;;10.63;4.00;;;6.30;99.90;;;;;;5072588;28;20049;-65
2023/12/07 03:30:39;;;;;;;10.13;3.33;;;6.30;99.90;;;;;;5073597;28;20098;-66
2023/12/07 03:33:06;;;;;;;9.90;3.97;;;6.30;99.90;;;;;;5075004;28;20036;-64
2023/12/07 03:35:33;;;;;;;9.23;3.67;;;6.30;99.90;;;;;;5076663;28;20120;-66
2023/12/07 03:37:59;;;;;;;9.40;4.20;;;6.30;99.90;;;;;;5074887;28;20101;-65
2023/12/07 03:40:26;;;;;;;8.55;3.55;;;6.30;99.90;;;;;;5076422;28;20527;-65
2023/12/07 03:42:53;;;;;;;9.77;3.63;;;6.30;99.90;;;;;;5076208;28;20059;-65
2023/12/07 03:45:22;;;;;;;11.10;3.75;;;6.40;99.90;;;;;;5076287;28;20068;-69
2023/12/07 03:47:49;;;;;;;11.23;3.30;;;6.40;99.90;;;;;;5058847;28;20036;-67
2023/12/07 03:50:16;;;;;;;8.05;3.47;;;6.40;99.90;;;;;;5074599;28;20102;-69
2023/12/07 03:52:43;;;;;;;8.30;3.40;;;6.40;99.90;;;;;;5076102;28;20064;-67
2023/12/07 03:55:10;;;;;;;8.18;3.67;;;6.40;99.90;;;;;;5076642;28;20478;-69
2023/12/07 03:57:38;;;;;;;7.93;3.58;;;6.40;99.90;;;;;;5075947;28;20044;-69
2023/12/07 04:00:08;;;;;;;9.80;3.65;;;6.40;99.90;;;;;;5076233;28;20051;-69
2023/12/07 04:02:34;;;;;;;13.20;3.97;;;6.40;99.90;;;;;;5075974;28;20033;-69
2023/12/07 04:05:02;;;;;;;8.90;3.42;;;6.40;99.90;;;;;;5076416;28;20432;-69
2023/12/07 04:07:29;;;;;;;10.05;4.03;;;6.40;99.90;;;;;;5075933;28;20521;-69
2023/12/07 04:09:59;;;;;;;10.65;3.83;;;6.40;99.90;;;;;;5076024;28;20461;-69
2023/12/07 04:12:26;;;;;;;9.07;3.50;;;6.40;99.90;;;;;;5076068;28;20477;-65
2023/12/07 04:14:53;;;;;;;12.38;3.83;;;6.40;99.90;;;;;;5076118;28;20045;-65
2023/12/07 04:17:20;;;;;;;14.55;4.15;;;6.40;99.90;;;;;;5075126;28;20040;-65
2023/12/07 04:19:47;;;;;;;10.27;3.78;;;6.40;99.90;;;;;;5074754;28;20052;-65
2023/12/07 04:22:14;;;;;;;12.77;4.22;;;6.40;99.90;;;;;;5075791;28;20359;-63
2023/12/07 04:24:41;;;;;;;9.13;3.58;;;6.40;99.90;;;;;;5075704;28;20159;-64
2023/12/07 04:27:07;;;;;;;14.40;3.45;;;6.40;99.90;;;;;;5075969;28;20044;-65
2023/12/07 04:29:35;;;;;;;11.77;3.15;;;6.30;99.90;;;;;;5075163;28;20044;-65
2023/12/07 04:32:02;;;;;;;11.98;3.30;;;6.40;99.90;;;;;;5075253;28;20078;-65
2023/12/07 04:34:29;;;;;;;7.93;3.45;;;6.40;99.90;;;;;;5075612;28;20046;-65
2023/12/07 04:36:56;;;;;;;11.25;2.72;;;6.40;99.90;;;;;;5075899;28;20086;-65
2023/12/07 04:39:23;;;;;;;11.13;3.28;;;6.40;99.90;;;;;;5075291;28;20046;-65
2023/12/07 04:41:51;;;;;;;9.90;3.17;;;6.40;99.90;;;;;;5074486;28;20060;-65
2023/12/07 04:44:19;;;;;;;9.68;3.22;;;6.40;99.90;;;;;;5076242;28;20374;-64
2023/12/07 04:46:45;;;;;;;10.57;3.25;;;6.40;99.90;;;;;;5075714;28;20043;-65
2023/12/07 04:49:12;;;;;;;12.65;3.63;;;6.40;99.90;;;;;;5075223;28;20059;-65
2023/12/07 04:51:41;;;;;;;10.27;3.33;;;6.40;99.90;;;;;;5075155;28;20124;-65
2023/12/07 04:54:08;;;;;;;6.70;3.00;;;6.50;99.90;;;;;;5075177;28;20044;-65
2023/12/07 04:56:45;;;;;;;9.35;3.30;;;6.50;99.90;;;;;;5073698;28;20450;-65
2023/12/07 04:59:12;;;;;;;11.65;4.63;;;6.50;99.90;;;;;;5074626;28;20090;-65
2023/12/07 05:01:38;;;;;;;9.93;3.20;;;6.50;99.90;;;;;;5075047;28;20128;-65
2023/12/07 05:04:05;;;;;;;9.20;3.28;;;6.50;99.90;;;;;;5074924;28;20044;-65
2023/12/07 05:06:32;;;;;;;7.25;3.45;;;6.50;99.90;;;;;;5074672;28;20036;-65
2023/12/07 05:08:59;;;;;;;8.18;3.70;;;6.50;99.90;;;;;;5075088;28;20040;-65
2023/12/07 05:11:26;;;;;;;7.20;3.35;;;6.50;99.90;;;;;;5074526;28;20044;-65
2023/12/07 05:13:53;;;;;;;9.02;3.13;;;6.50;99.90;;;;;;5074982;28;20040;-65
2023/12/07 05:16:19;;;;;;;8.05;3.58;;;6.60;99.90;;;;;;5074757;28;20044;-64
2023/12/07 05:18:46;;;;;;;7.93;3.67;;;6.50;99.90;;;;;;5074472;28;20501;-62
2023/12/07 05:21:13;;;;;;;8.55;3.88;;;6.60;99.90;;;;;;5074752;28;20168;-64
2023/12/07 05:23:40;;;;;;;10.70;4.00;;;6.50;99.90;;;;;;5074865;28;20123;-65
2023/12/07 05:26:08;;;;;;;11.25;4.03;;;6.50;99.90;;;;;;5074794;28;20097;-65
2023/12/07 05:28:34;;;;;;;5.68;3.35;;;6.50;99.90;;;;;;5074294;28;20048;-65
2023/12/07 05:31:01;;;;;;;7.30;3.80;;;6.50;99.90;;;;;;5074407;28;20090;-65
2023/12/07 05:33:28;;;;;;;10.80;3.67;;;6.50;99.90;;;;;;5074191;28;20123;-66
2023/12/07 05:35:55;;;;;;;8.05;3.42;;;6.50;99.90;;;;;;5074255;28;20032;-65
2023/12/07 05:38:22;;;;;;;11.27;4.18;;;6.50;99.90;;;;;;5074224;28;20040;-65
2023/12/07 05:40:49;;;;;;;9.32;4.00;;;6.50;99.90;;;;;;5073817;28;20045;-65
2023/12/07 05:43:16;;;;;;;9.70;4.07;;;6.60;99.90;;;;;;5073746;28;20037;-65
2023/12/07 05:45:45;;;;;;;11.75;4.25;;;6.60;99.90;;;;;;5073149;28;20064;-65
2023/12/07 05:48:11;;;;;;;7.82;4.20;;;6.60;99.90;;;;;;5074006;28;20037;-65
2023/12/07 05:50:39;;;;;;;11.13;4.50;;;6.60;99.90;;;;;;5074111;28;20420;-66
2023/12/07 05:53:06;;;;;;;9.93;4.78;;;6.60;99.90;;;;;;5073696;28;20040;-66
2023/12/07 05:55:33;;;;;;;11.13;4.47;;;6.60;99.90;;;;;;5074319;28;20044;-66
2023/12/07 05:58:00;;;;;;;10.77;5.10;;;6.60;99.90;;;;;;5073773;28;20436;-66
2023/12/07 06:00:27;;;;;;;13.35;5.03;;;6.60;99.90;;;;;;5073661;28;20090;-65
2023/12/07 06:02:54;;;;;;;9.30;5.22;;;6.60;99.90;;;;;;5073606;28;20045;-65
2023/12/07 06:05:21;;;;;;;11.93;5.03;;;6.60;99.90;;;;;;5073886;28;20047;-65
2023/12/07 06:07:48;;;;;;;8.18;5.18;;;6.60;99.90;;;;;;5073505;28;20044;-63
2023/12/07 06:10:15;;;;;;;13.68;5.38;;;6.60;99.90;;;;;;5073750;28;20044;-65
2023/12/07 06:12:42;;;;;;;11.98;5.45;;;6.60;99.90;;;;;;5072414;28;20127;-65
2023/12/07 06:15:09;;;;;;;10.55;5.38;;;6.60;99.90;;;;;;5072605;28;20112;-63
2023/12/07 06:17:36;;;;;;;10.13;5.47;;;6.60;99.90;;;;;;5073932;28;20151;-65
2023/12/07 06:20:03;;;;;;;13.30;5.88;;;6.60;99.90;;;;;;5073844;28;20049;-63
2023/12/07 06:22:30;;;;;;;12.95;6.50;;;6.60;99.90;;;;;;5073971;28;20043;-65
2023/12/07 06:24:57;;;;;;;10.95;6.03;;;6.60;99.90;;;;;;5073796;28;20037;-63
2023/12/07 06:27:24;;;;;;;10.18;5.97;;;6.60;99.90;;;;;;5073928;28;20422;-63
2023/12/07 06:29:51;;;;;;;12.70;5.93;;;6.60;99.90;;;;;;5073557;28;20091;-65
2023/12/07 06:32:18;;;;;;;12.63;5.65;;;6.60;99.90;;;;;;5073650;28;20048;-63
2023/12/07 06:34:45;;;;;;;16.55;7.25;;;6.60;99.90;;;;;;5073479;28;20531;-65
2023/12/07 06:37:12;;;;;;;11.60;6.20;;;6.60;99.90;;;;;;5073883;28;20373;-63
2023/12/07 06:39:39;;;;;;;12.73;6.40;;;6.60;99.90;;;;;;5073463;28;20123;-65
2023/12/07 06:42:06;;;;;;;13.90;6.78;;;6.60;99.90;;;;;;5072971;28;20511;-65
2023/12/07 06:44:33;;;;;;;12.20;6.45;;;6.60;99.90;;;;;;5072337;28;20068;-65
2023/12/07 06:47:03;;;;;;;10.57;6.20;;;6.60;99.90;;;;;;5073705;28;20359;-66
2023/12/07 06:49:29;;;;;;;13.48;6.32;;;6.60;99.90;;;;;;5073130;28;20048;-66
2023/12/07 06:52:12;;;;;;;12.80;6.80;;;6.70;99.90;;;;;;5073327;28;20048;-66
2023/12/07 06:54:39;;;;;;;11.73;6.55;;;6.60;99.90;;;;;;5073516;28;20047;-66
2023/12/07 06:57:09;;;;;;;10.88;6.55;;;6.70;99.90;;;;;;5072924;28;20041;-66
2023/12/07 06:59:36;;;;;;;12.60;6.65;;;6.70;99.90;;;;;;5072930;28;20040;-66
2023/12/07 07:02:02;;;;;;;12.07;6.78;;;6.70;99.90;;;;;;5072929;28;20041;-66
2023/12/07 07:04:29;;;;;;;12.32;6.93;;;6.70;99.90;;;;;;5072965;28;20094;-66
2023/12/07 07:06:57;;;;;;;12.88;6.55;;;6.70;99.90;;;;;;5076842;28;20049;-66
2023/12/07 07:09:23;;;;;;;15.60;6.75;;;6.70;99.90;;;;;;5076786;28;20044;-66
2023/12/07 07:11:50;;;;;;;11.63;6.68;;;6.70;99.90;;;;;;5076786;28;20066;-69
2023/12/07 07:14:17;;;;;;;13.98;7.50;;;6.70;99.90;;;;;;5076542;28;20036;-65
2023/12/07 07:16:44;;;;;;;12.57;6.28;;;6.70;99.90;;;;;;5076732;28;20037;-65
2023/12/07 07:19:11;;;;;;;10.40;6.72;;;6.70;99.90;;;;;;5076135;28;20037;-69
2023/12/07 07:21:38;;;;;;;13.25;6.57;;;6.70;99.90;;;;;;5076820;28;20040;-69
2023/12/07 07:24:05;;;;;;;13.07;6.82;;;6.70;99.90;;;;;;5076920;28;20135;-69
2023/12/07 07:26:33;;;;;;;10.15;6.70;;;6.80;99.90;;;;;;5076758;28;20049;-69
2023/12/07 07:29:00;;;;;;;14.85;6.78;;;6.80;99.90;;;;;;5076634;28;20044;-69
2023/12/07 07:31:26;;;;;;;14.52;6.53;;;6.70;99.90;;;;;;5076643;28;20071;-70
2023/12/07 07:33:53;;;;;;;13.68;6.25;;;6.80;99.90;;;;;;5076718;28;20052;-69
2023/12/07 07:36:27;;;;;;;10.27;6.50;;;6.80;99.90;;;;;;5076690;28;20040;-69
2023/12/07 07:38:54;;;;;;;12.60;6.28;;;6.80;99.90;;;;;;5075137;28;20032;-69
2023/12/07 07:41:21;;;;;;;11.15;5.75;;;6.80;99.90;;;;;;5076533;28;20071;-68
2023/12/07 07:43:47;;;;;;;8.52;5.47;;;6.80;99.90;;;;;;5076285;28;20039;-69
2023/12/07 07:46:14;;;;;;;8.25;5.10;;;6.80;99.90;;;;;;5076130;28;20071;-69
2023/12/07 07:48:41;;;;;;;10.05;5.93;;;6.80;99.90;;;;;;5076250;28;20041;-69
2023/12/07 07:51:08;;;;;;;14.25;6.50;;;6.80;99.90;;;;;;5076344;28;20040;-68
2023/12/07 07:53:35;;;;;;;13.93;5.95;;;6.80;99.90;;;;;;5076433;28;20068;-69
2023/12/07 07:56:01;;;;;;;13.88;5.95;;;6.80;99.90;;;;;;5076544;28;20109;-69
2023/12/07 07:58:28;;;;;;;13.88;5.82;;;6.80;99.90;;;;;;5075742;28;20036;-68
2023/12/07 08:00:55;;;;;;;16.67;6.00;;;6.80;99.90;;;;;;5076028;28;20036;-69
2023/12/07 08:03:22;;;;;;;10.95;5.88;;;6.80;99.90;;;;;;5076271;28;20377;-69
2023/12/07 08:05:49;;;;;;;10.80;5.63;;;6.80;99.90;;;;;;5076070;28;20048;-69
2023/12/07 08:08:15;;;;;;;13.85;5.78;;;6.80;99.90;;;;;;5076144;28;20055;-69
2023/12/07 08:10:42;;;;;;;11.73;5.60;;;6.80;99.90;;;;;;5074921;28;20484;-68
2023/12/07 08:13:21;;;;;;;16.23;5.32;;;6.80;99.90;;;;;;5075866;28;20044;-68
2023/12/07 08:15:48;;;;;;;8.85;4.97;;;6.90;99.90;;;;;;5074297;28;20043;-69
2023/12/07 08:18:15;;;;;;;15.73;5.03;;;6.90;99.90;;;;;;5075570;28;20497;-69
2023/12/07 08:20:42;;;;;;;12.65;5.10;;;6.90;99.90;;;;;;5075951;28;20040;-69
2023/12/07 08:23:10;;;;;;;11.68;5.38;;;6.90;99.90;;;;;;5076220;28;20166;-69
2023/12/07 08:25:37;;;;;;;13.25;5.03;;;6.90;99.90;;;;;;5075833;28;20044;-69
2023/12/07 08:28:04;;;;;;;11.38;5.50;;;6.90;99.90;;;;;;5075323;28;20363;-69
2023/12/07 08:30:30;;;;;;;10.18;5.40;;;7.00;99.90;;;;;;5075342;28;20051;-68
2023/12/07 08:32:57;;;;;;;10.88;4.70;;;7.00;99.90;;;;;;5076179;28;20048;-68
2023/12/07 08:35:24;;;;;;;9.38;5.10;;;7.00;99.90;;;;;;5075735;28;20072;-68
2023/12/07 08:37:51;;;;;;;8.45;4.72;;;7.00;99.90;;;;;;5075175;28;20036;-68
2023/12/07 08:40:19;;;;;;;12.80;5.22;;;7.00;99.90;;;;;;5074912;28;20474;-69
2023/12/07 08:42:46;;;;;;;9.80;5.10;;;7.00;99.90;;;;;;5073762;28;20060;-69
2023/12/07 08:45:16;;;;;;;12.55;4.38;;;7.00;99.90;;;;;;5074846;28;20497;-68
2023/12/07 08:47:42;;;;;;;12.10;4.85;;;7.10;99.90;;;;;;5074954;28;20044;-69
2023/12/07 08:50:09;;;;;;;17.08;5.30;;;7.10;99.90;;;;;;5075194;28;20036;-69
2023/12/07 08:52:36;;;;;;;13.88;5.03;;;7.10;99.90;;;;;;5074741;28;20041;-69
2023/12/07 08:55:15;;;;;;;11.38;4.88;;;7.10;99.90;;;;;;5079599;28;20429;-63
2023/12/07 08:57:42;;;;;;;10.23;4.85;;;7.10;99.90;;;;;;5076744;28;20033;-64
2023/12/07 09:00:12;;;;;;;12.90;4.20;;;7.10;99.90;;;;;;5093750;28;20458;-64
2023/12/07 09:02:39;;;;;;;8.43;4.25;;;7.10;99.90;;;;;;5069362;28;20455;-64
2023/12/07 09:05:13;;;;;;;13.60;4.43;;;7.10;99.90;;;;;;5079645;28;20406;-69
2023/12/07 09:07:40;;;;;;;10.52;4.20;;;7.10;99.90;;;;;;5074250;28;20474;-69
2023/12/07 09:10:08;;;;;;;12.38;4.30;;;7.20;99.90;;;;;;5074482;28;20051;-69
2023/12/07 09:12:35;;;;;;;8.57;4.18;;;7.20;99.90;;;;;;5074257;28;20044;-69
2023/12/07 09:15:07;;;;;;;11.05;4.07;;;7.20;99.90;;;;;;5072901;28;20176;-69
2023/12/07 09:17:34;;;;;;;11.30;4.07;;;7.20;99.90;;;;;;5073852;28;20374;-69
2023/12/07 09:20:01;;;;;;;9.02;3.72;;;7.20;99.90;;;;;;5075697;28;20124;-69
2023/12/07 09:22:28;;;;;;;10.82;3.80;;;7.30;99.90;;;;;;5089549;28;20443;-69
2023/12/07 09:25:03;;;;;;;13.68;3.97;;;7.30;99.90;;;;;;5087039;28;20123;-69
2023/12/07 09:27:33;;;;;;;8.88;3.78;;;7.30;99.90;;;;;;5073154;28;20044;-68
2023/12/07 09:29:59;;;;;;;9.95;4.28;;;7.30;99.90;;;;;;5072761;28;20067;-67
2023/12/07 09:32:27;;;;;;;8.50;4.00;;;7.40;99.90;;;;;;5073874;28;20086;-68
2023/12/07 09:35:02;;;;;;;11.32;4.00;;;7.40;99.90;;;;;;5085336;28;20119;-68
2023/12/07 09:37:29;;;;;;;9.02;3.85;;;7.40;99.90;;;;;;5073573;28;20446;-69
2023/12/07 09:39:56;;;;;;;8.57;4.07;;;7.40;99.90;;;;;;5077826;28;20047;-69
2023/12/07 09:42:22;;;;;;;8.57;3.75;;;7.50;99.90;;;;;;5092924;28;20101;-64
2023/12/07 09:44:57;;;;;;;9.88;3.83;;;7.50;99.90;;;;;;5088144;28;20048;-64
2023/12/07 09:47:24;;;;;;;12.57;4.25;;;7.50;99.90;;;;;;5073558;28;20082;-64
2023/12/07 09:50:02;;;;;;;11.52;3.88;;;7.60;99.90;;;;;;5082649;28;20040;-64
2023/12/07 09:52:29;;;;;;;11.10;3.60;;;7.60;99.90;;;;;;5073751;28;20040;-64
2023/12/07 09:54:56;;;;;;;10.05;4.07;;;7.60;99.90;;;;;;5077297;28;20040;-64
2023/12/07 09:57:22;;;;;;;9.85;4.43;;;7.60;99.90;;;;;;5073603;28;20548;-63
2023/12/07 09:59:50;;;;;;;10.05;4.35;;;7.60;99.90;;;;;;5073636;28;20124;-63
2023/12/07 10:02:17;;;;;;;12.02;4.30;;;7.60;99.90;;;;;;5073522;28;20045;-63
2023/12/07 10:04:44;;;;;;;12.93;4.10;;;7.60;99.90;;;;;;5073550;28;20132;-64
2023/12/07 10:07:11;;;;;;;9.07;4.07;;;7.70;99.90;;;;;;5073351;28;20106;-69
2023/12/07 10:09:38;;;;;;;11.57;4.50;;;7.70;99.90;;;;;;5073385;28;20044;-69
2023/12/07 10:12:04;;;;;;;9.15;4.13;;;7.70;99.90;;;;;;5073379;28;20041;-69
2023/12/07 10:14:31;;;;;;;12.65;4.50;;;7.70;99.90;;;;;;5073552;28;20041;-69
2023/12/07 10:16:58;;;;;;;9.23;4.25;;;7.70;99.90;;;;;;5073355;28;20037;-69
2023/12/07 10:19:25;;;;;;;8.13;3.72;;;7.70;99.90;;;;;;5082492;28;20423;-69
2023/12/07 10:21:58;;;;;;;7.82;3.70;;;7.70;99.90;;;;;;5073635;28;20389;-69
2023/12/07 10:24:25;;;;;;;10.55;4.25;;;7.80;99.90;;;;;;5086201;28;20033;-69
2023/12/07 10:26:52;;;;;;;10.85;3.90;;;7.80;99.90;;;;;;5073580;28;20045;-69
2023/12/07 10:29:29;;;;;;;7.32;3.50;;;7.80;99.90;;;;;;5086587;28;20040;-69
2023/12/07 10:31:59;;;;;;;10.20;3.80;;;7.80;99.90;;;;;;5074186;28;20052;-69
2023/12/07 10:34:26;;;;;;;6.38;3.10;;;7.80;99.90;;;;;;5073289;28;20045;-65
2023/12/07 10:36:53;;;;;;;9.85;3.20;;;7.90;99.90;;;;;;5072864;28;20041;-65
2023/12/07 10:39:20;;;;;;;11.40;4.05;;;7.90;99.90;;;;;;5074482;28;20044;-64
2023/12/07 10:41:54;;;;;;;10.88;3.25;;;7.90;99.90;;;;;;5077426;28;20136;-65
2023/12/07 10:44:22;;;;;;;8.00;3.00;;;7.90;99.90;;;;;;5077388;28;20056;-64
2023/12/07 10:46:49;;;;;;;8.55;2.90;;;8.00;99.90;;;;;;5076994;28;20086;-64
2023/12/07 10:49:16;;;;;;;10.32;3.08;;;8.00;99.90;;;;;;5084761;28;20043;-64
2023/12/07 10:51:55;;;;;;;9.20;2.72;;;8.00;99.90;;;;;;5080011;28;20124;-64
2023/12/07 10:54:21;;;;;;;10.32;3.13;;;8.00;99.90;;;;;;5075717;28;20048;-64
2023/12/07 10:56:50;;;;;;;10.18;3.10;;;8.00;99.90;;;;;;5076655;28;20040;-64
2023/12/07 10:59:17;;;;;;;7.35;2.42;;;8.10;99.90;;;;;;5076713;28;20044;-64
2023/12/07 11:01:55;;;;;;;8.35;3.22;;;8.10;99.90;;;;;;5076859;28;20051;-64
2023/12/07 11:04:23;;;;;;;7.82;3.03;;;8.10;99.90;;;;;;5076775;28;20036;-64
2023/12/07 11:06:50;;;;;;;10.45;3.03;;;8.10;99.90;;;;;;5076739;28;20464;-64
2023/12/07 11:09:16;;;;;;;10.75;3.30;;;8.20;99.90;;;;;;5076451;28;20044;-64
2023/12/07 11:11:54;;;;;;;8.80;3.47;;;8.20;99.90;;;;;;5076629;28;20106;-64
2023/12/07 11:14:21;;;;;;;10.23;3.10;;;8.20;99.90;;;;;;5076275;28;20435;-64
2023/12/07 11:16:47;;;;;;;8.93;3.20;;;8.20;99.90;;;;;;5075171;28;20044;-64
2023/12/07 11:19:14;;;;;;;9.20;3.25;;;8.20;99.90;;;;;;5084264;28;20036;-64
2023/12/07 11:21:41;;;;;;;8.82;3.38;;;8.20;99.90;;;;;;5081230;28;20090;-64
2023/12/07 11:24:08;;;;;;;8.30;4.07;;;8.20;99.90;;;;;;5076411;28;20483;-68
2023/12/07 11:26:35;;;;;;;12.32;3.58;;;8.20;99.90;;;;;;5075043;28;20036;-68
2023/12/07 11:29:01;;;;;;;10.68;3.42;;;8.20;99.90;;;;;;5076058;28;20448;-68
2023/12/07 11:31:28;;;;;;;8.27;3.17;;;8.20;99.90;;;;;;5076243;28;20071;-68
2023/12/07 11:33:55;;;;;;;5.90;2.55;;;8.20;99.90;;;;;;5076338;28;20079;-67
2023/12/07 11:36:22;;;;;;;11.15;3.17;;;8.30;99.90;;;;;;5074726;28;20443;-67
2023/12/07 11:38:49;;;;;;;10.13;2.83;;;8.20;99.90;;;;;;5076164;28;20033;-67
2023/12/07 11:41:16;;;;;;;9.00;2.90;;;8.30;99.90;;;;;;5076035;28;20048;-67
2023/12/07 11:43:45;;;;;;;8.95;3.20;;;8.30;99.90;;;;;;5075924;28;20052;-69
2023/12/07 11:46:14;;;;;;;12.50;3.20;;;8.30;99.90;;;;;;5076145;28;20102;-67
2023/12/07 11:48:40;;;;;;;7.80;3.00;;;8.30;99.90;;;;;;5079247;28;20477;-68
2023/12/07 11:51:07;;;;;;;6.22;2.45;;;8.30;99.90;;;;;;5087348;28;20493;-67
2023/12/07 11:53:34;;;;;;;9.52;3.13;;;8.30;99.90;;;;;;5075845;28;20131;-67
2023/12/07 11:56:01;;;;;;;11.25;2.80;;;8.30;99.90;;;;;;5075556;28;20122;-67
2023/12/07 11:58:28;;;;;;;6.93;2.45;;;8.40;99.90;;;;;;5074524;28;20040;-67
2023/12/07 12:00:56;;;;;;;7.75;2.85;;;8.30;99.90;;;;;;5075665;28;20040;-68
2023/12/07 12:03:23;;;;;;;7.97;2.58;;;8.30;99.90;;;;;;5075767;28;20041;-67
2023/12/07 12:05:50;;;;;;;7.90;2.75;;;8.30;99.90;;;;;;5075665;28;20375;-63
2023/12/07 12:08:19;;;;;;;7.68;3.05;;;8.30;99.90;;;;;;5093310;28;20070;-63
2023/12/07 12:10:46;;;;;;;12.50;2.60;;;8.30;99.90;;;;;;5085186;28;20102;-63
2023/12/07 12:13:13;;;;;;;7.55;2.70;;;8.30;99.90;;;;;;5075726;28;20484;-63
2023/12/07 12:15:40;;;;;;;9.00;2.65;;;8.30;99.90;;;;;;5074030;28;20485;-63
2023/12/07 12:18:07;;;;;;;9.65;3.00;;;8.30;99.90;;;;;;5075975;28;20032;-63
2023/12/07 12:20:34;;;;;;;9.55;2.80;;;8.30;99.90;;;;;;5094198;28;20044;-63
2023/12/07 12:23:01;;;;;;;8.18;2.70;;;8.30;99.90;;;;;;5095115;28;20079;-63
2023/12/07 12:25:30;;;;;;;7.47;2.60;;;8.30;99.90;;;;;;5095100;28;20035;-68
2023/12/07 12:27:57;;;;;;;5.93;2.53;;;8.30;99.90;;;;;;5094844;28;20048;-68
2023/12/07 12:30:26;;;;;;;8.00;3.00;;;8.30;99.90;;;;;;5094671;28;20064;-69
2023/12/07 12:32:52;;;;;;;10.05;3.00;;;8.30;99.90;;;;;;5094304;28;20044;-69
2023/12/07 12:35:19;;;;;;;10.07;3.30;;;8.30;99.90;;;;;;5094233;28;20044;-69
2023/12/07 12:37:46;;;;;;;8.38;3.25;;;8.30;99.90;;;;;;5091382;28;20037;-69
2023/12/07 12:40:15;;;;;;;7.80;3.25;;;8.30;99.90;;;;;;5083562;28;20036;-69
2023/12/07 12:42:42;;;;;;;8.20;3.20;;;8.30;99.90;;;;;;5092803;28;20075;-69
2023/12/07 12:45:10;;;;;;;10.07;3.30;;;8.30;99.90;;;;;;5090617;28;20048;-69
2023/12/07 12:47:37;;;;;;;5.72;2.72;;;8.20;99.90;;;;;;5094440;28;20040;-68
2023/12/07 12:50:05;;;;;;;7.32;2.88;;;8.30;99.90;;;;;;5087802;28;20109;-69